Airfield :
LOGIN :

Register | Disclaimer

   EN    FR    IT 

 










Legend :    VFR   Marginal VFR   IFR   Intensive IFR   Very Intensive IFR
Visi :
Ceiling :
>= 8 km
>= 3000ft
5 to 8 km
1000 to 3000 ft
1500m to 5 km
500 to 1000 ft
800 to 1500m
200 to 500 ft
< 800m
< 200 ft
Symbols :   Thunderstorms  Fog  Heavy snow  Heavy precipitations  Wind > 20 kt
SIGMETs :     Misc.  Thunderstorms  Icing  Turbulence  Mountain Waves  Volcanic Ashes






- Airport Elevation : 157 ft
- IATA code : SXF


EDDB - Berlin Schönefeld

CURRENT METAR :
  • 221020Z 33007KT 300V360 9999 -RA BKN014 17/14 Q1014 BECMG BKN015

EXPIRED METARs :
  • 220950Z 31010KT 9999 -RA BKN012 17/14 Q1013 BECMG BKN015
  • 220920Z 30009KT 270V330 9999 -RA BKN011 17/15 Q1013 BECMG BKN015
  • 220850Z 29010KT 9999 -RA FEW009 BKN011 17/15 Q1013 BECMG BKN015
  • 220820Z 30009KT 9999 -RA BKN011 18/15 Q1012 BECMG BKN015
  • 220750Z 30010KT 9999 -RA FEW008 BKN010 18/15 Q1012 BECMG BKN015

TAF TAF EDDB
Valid from the 22 at 06:00 until the 23 at 06:00 UTC


220500Z 2206/2306 32009KT 9999 BKN015
TEMPO 2206/2211 BKN008



MET'MAP, your aeronautical weather chart ! - Copyright ORBIFLY December 2007 - Disclaimer

ORBIFLY MET'MAP TEAM :

Programming & Development : Alexandra Zaïnal
Concept & original design : Baudouin d'Aumeries
Assistance for programming : Marc-Olivier Méhu
Technical & hardware support : Manuel Goepfert

Contact : metmap@orbifly.com




SOURCES & CREDITS :

   NOAA